createdAt,value
2023-08-13T00:00:50.534Z,99.99
2023-08-13T00:01:50.524Z,99.99
2023-08-13T00:02:50.532Z,99.99
2023-08-13T00:03:50.928Z,99.99
2023-08-13T00:04:50.524Z,99.99
2023-08-13T00:05:50.423Z,99.99
2023-08-13T00:06:50.419Z,99.99
2023-08-13T00:07:50.424Z,99.99
2023-08-13T00:08:50.388Z,99.99
2023-08-13T00:09:50.400Z,99.99
2023-08-13T00:10:50.718Z,99.99
2023-08-13T00:11:50.376Z,99.99
2023-08-13T00:12:50.371Z,99.99
2023-08-13T00:13:50.412Z,99.99
2023-08-13T00:14:50.341Z,99.99
2023-08-13T00:15:50.317Z,99.99
2023-08-13T00:16:50.351Z,99.99
2023-08-13T00:17:50.648Z,99.99
2023-08-13T00:18:50.311Z,99.99
2023-08-13T00:19:50.300Z,99.99
2023-08-13T00:20:50.276Z,99.99
2023-08-13T00:22:06.045Z,99.99
2023-08-13T00:22:50.329Z,99.99
2023-08-13T00:23:50.273Z,99.99
2023-08-13T00:24:51.526Z,99.99
2023-08-13T00:25:50.248Z,99.99
2023-08-13T00:26:50.204Z,99.99
2023-08-13T00:27:50.190Z,99.99
2023-08-13T00:28:50.991Z,99.99
2023-08-13T00:29:50.175Z,99.99
2023-08-13T00:30:50.161Z,99.99
2023-08-13T00:31:51.510Z,99.99
2023-08-13T00:32:50.256Z,99.99
2023-08-13T00:33:50.140Z,99.99
2023-08-13T00:34:50.154Z,99.99
2023-08-13T00:35:51.763Z,99.99
2023-08-13T00:36:50.101Z,99.99
2023-08-13T00:37:50.105Z,99.99
2023-08-13T00:38:50.362Z,99.99
2023-08-13T00:39:50.079Z,99.99
2023-08-13T00:40:50.088Z,99.99
2023-08-13T00:41:50.071Z,99.99
2023-08-13T00:42:50.039Z,99.99
2023-08-13T00:43:50.037Z,99.99
2023-08-13T00:44:50.154Z,99.99
2023-08-13T00:45:50.372Z,99.99
2023-08-13T00:46:50.075Z,99.99
2023-08-13T00:47:50.011Z,99.99
2023-08-13T00:48:49.982Z,99.99
2023-08-13T00:49:50.040Z,99.99
2023-08-13T00:50:49.976Z,99.99
2023-08-13T00:51:49.938Z,99.99
2023-08-13T00:52:50.438Z,99.99
2023-08-13T00:53:49.952Z,99.99
2023-08-13T00:54:49.915Z,99.99
2023-08-13T00:55:49.910Z,99.99
2023-08-13T00:56:49.900Z,99.99
2023-08-13T00:57:49.951Z,99.99
2023-08-13T00:58:49.943Z,99.99
2023-08-13T00:59:50.224Z,99.99
2023-08-13T01:00:49.875Z,99.99
2023-08-13T01:01:49.937Z,99.99
2023-08-13T01:02:49.960Z,99.99
2023-08-13T01:03:49.907Z,99.99
2023-08-13T01:04:49.859Z,99.99
2023-08-13T01:05:49.798Z,99.99
2023-08-13T01:06:50.081Z,99.99
2023-08-13T01:07:49.802Z,99.99
2023-08-13T01:08:49.789Z,99.99
2023-08-13T01:09:49.781Z,99.99
2023-08-13T01:10:49.771Z,99.99
2023-08-13T01:11:49.769Z,99.99
2023-08-13T01:12:49.754Z,99.99
2023-08-13T01:13:49.998Z,99.99
2023-08-13T01:14:49.754Z,99.99
2023-08-13T01:15:49.800Z,99.99
2023-08-13T01:16:49.758Z,99.99
2023-08-13T01:17:49.755Z,99.99
2023-08-13T01:18:49.690Z,99.99
2023-08-13T01:19:49.683Z,99.99
2023-08-13T01:20:49.952Z,99.99
2023-08-13T01:21:49.627Z,99.99
2023-08-13T01:22:49.660Z,99.99
2023-08-13T01:23:49.599Z,99.99
2023-08-13T01:24:49.607Z,99.99
2023-08-13T01:25:49.575Z,99.99
2023-08-13T01:26:49.590Z,99.99
2023-08-13T01:27:49.861Z,99.99
2023-08-13T01:28:49.659Z,99.99
2023-08-13T01:29:49.552Z,99.99
2023-08-13T01:30:49.542Z,99.99
2023-08-13T01:31:49.527Z,99.99
2023-08-13T01:32:49.611Z,99.99
2023-08-13T01:33:49.506Z,99.99
2023-08-13T01:34:49.866Z,99.99
2023-08-13T01:35:49.493Z,99.99
2023-08-13T01:36:49.473Z,99.99
2023-08-13T01:40:28.964Z,99.99
2023-08-13T01:41:29.874Z,99.99
2023-08-13T01:42:29.894Z,99.99
2023-08-13T01:43:29.845Z,99.99
2023-08-13T01:44:29.844Z,99.99
2023-08-13T01:45:29.924Z,99.99
2023-08-13T01:46:30.098Z,99.99
2023-08-13T01:47:29.842Z,99.99
2023-08-13T01:48:29.778Z,99.99
2023-08-13T01:49:29.798Z,99.99
2023-08-13T01:50:29.802Z,99.99
2023-08-13T01:51:29.805Z,99.99
2023-08-13T01:52:30.038Z,99.99
2023-08-13T01:53:29.787Z,99.99
2023-08-13T01:54:29.822Z,99.99
2023-08-13T01:55:29.754Z,99.99
2023-08-13T01:56:29.700Z,99.99
2023-08-13T01:57:29.738Z,99.99
2023-08-13T01:58:29.678Z,99.99
2023-08-13T01:59:29.668Z,99.99
2023-08-13T02:00:29.667Z,99.99
2023-08-13T02:01:29.670Z,99.99
2023-08-13T02:02:29.639Z,99.99
2023-08-13T02:03:29.655Z,99.99
2023-08-13T02:04:29.962Z,99.99
2023-08-13T02:05:30.283Z,99.99
2023-08-13T02:06:29.586Z,99.99
2023-08-13T02:07:29.593Z,99.99
2023-08-13T02:08:29.575Z,99.99
2023-08-13T02:09:30.308Z,99.99
2023-08-13T02:10:29.548Z,99.99
2023-08-13T02:11:29.822Z,99.99
2023-08-13T02:12:29.517Z,99.99
2023-08-13T02:13:29.533Z,99.99
2023-08-13T02:14:29.527Z,99.99
2023-08-13T02:15:29.544Z,99.99
2023-08-13T02:16:29.492Z,99.99
2023-08-13T02:17:29.556Z,99.99
2023-08-13T02:18:29.752Z,99.99
2023-08-13T02:19:29.471Z,99.99
2023-08-13T02:20:29.440Z,99.99
2023-08-13T02:21:29.497Z,99.99
2023-08-13T02:22:29.430Z,99.99
2023-08-13T02:23:29.424Z,99.99
2023-08-13T02:24:29.399Z,99.99
2023-08-13T02:25:29.685Z,99.99
2023-08-13T02:26:29.388Z,99.99
2023-08-13T02:27:29.408Z,99.99
2023-08-13T02:28:29.368Z,99.99
2023-08-13T02:29:29.435Z,99.99
2023-08-13T02:30:29.331Z,99.99
2023-08-13T02:31:29.324Z,99.99
2023-08-13T02:32:29.662Z,99.99
2023-08-13T02:33:29.361Z,99.99
2023-08-13T02:34:29.286Z,99.99
2023-08-13T02:35:29.272Z,99.99
2023-08-13T02:36:29.271Z,99.99
2023-08-13T02:37:29.262Z,99.99
2023-08-13T02:38:29.239Z,99.99
2023-08-13T02:39:29.653Z,99.99
2023-08-13T02:40:29.298Z,99.99
2023-08-13T02:41:30.184Z,99.99
2023-08-13T02:42:29.232Z,99.99
2023-08-13T02:43:29.231Z,99.99
2023-08-13T02:44:29.186Z,99.99
2023-08-13T02:45:29.230Z,99.99
2023-08-13T02:46:29.475Z,99.99
2023-08-13T02:47:29.184Z,99.99
2023-08-13T02:48:29.161Z,99.99
2023-08-13T02:49:29.118Z,99.99
2023-08-13T02:50:29.137Z,99.99
2023-08-13T02:51:29.315Z,99.99
2023-08-13T02:52:29.154Z,99.99
2023-08-13T02:53:29.373Z,99.99
2023-08-13T02:54:29.076Z,99.99
2023-08-13T02:55:29.083Z,99.99
2023-08-13T02:56:29.056Z,99.99
2023-08-13T02:57:29.076Z,99.99
2023-08-13T02:58:29.018Z,99.99
2023-08-13T02:59:29.015Z,99.99
2023-08-13T03:00:29.293Z,99.99
2023-08-13T03:01:29.013Z,99.99
2023-08-13T03:02:29.010Z,99.99
2023-08-13T03:03:35.659Z,99.99
2023-08-13T03:04:28.959Z,99.99
2023-08-13T03:05:28.956Z,99.99
2023-08-13T03:06:28.953Z,99.99
2023-08-13T03:07:29.238Z,99.99
2023-08-13T03:08:28.919Z,99.99
2023-08-13T03:09:28.939Z,99.99
2023-08-13T03:10:28.905Z,99.99
2023-08-13T03:11:28.888Z,99.99
2023-08-13T03:12:28.888Z,99.99
2023-08-13T03:13:28.864Z,99.99
2023-08-13T03:14:29.122Z,99.92
2023-08-13T03:15:28.881Z,99.92
2023-08-13T03:16:28.876Z,99.92
2023-08-13T03:17:28.891Z,99.82
2023-08-13T03:18:28.831Z,99.82
2023-08-13T03:19:28.805Z,99.82
2023-08-13T03:20:28.794Z,99.82
2023-08-13T03:21:29.116Z,99.82
2023-08-13T03:22:28.771Z,99.82
2023-08-13T03:23:28.901Z,99.92
2023-08-13T03:24:28.747Z,99.92
2023-08-13T03:25:28.736Z,99.87
2023-08-13T03:26:28.763Z,99.77
2023-08-13T03:27:28.739Z,99.77
2023-08-13T03:28:29.018Z,99.66
2023-08-13T03:29:28.680Z,99.66
2023-08-13T03:30:28.682Z,99.77
2023-08-13T03:31:28.761Z,99.66
2023-08-13T03:32:28.685Z,99.66
2023-08-13T03:33:28.693Z,99.77
2023-08-13T03:34:28.690Z,99.77
2023-08-13T03:35:28.923Z,99.77
2023-08-13T03:36:28.630Z,99.77
2023-08-13T03:37:28.603Z,99.77
2023-08-13T03:38:28.608Z,99.77
2023-08-13T03:39:28.644Z,99.77
2023-08-13T03:40:28.579Z,99.87
2023-08-13T03:41:28.565Z,99.77
2023-08-13T03:42:28.833Z,99.66
2023-08-13T03:43:28.543Z,99.66
2023-08-13T03:44:28.560Z,99.56
2023-08-13T03:45:28.569Z,99.66
2023-08-13T03:46:28.512Z,99.66
2023-08-13T03:47:28.495Z,99.77
2023-08-13T03:48:28.496Z,99.77
2023-08-13T03:49:28.803Z,99.77
2023-08-13T03:50:28.473Z,99.87
2023-08-13T03:51:28.505Z,99.97
2023-08-13T03:52:28.466Z,99.99
2023-08-13T03:53:28.423Z,99.99
2023-08-13T03:54:28.447Z,99.99
2023-08-13T03:55:28.428Z,99.99
2023-08-13T03:56:28.721Z,99.99
2023-08-13T03:57:28.429Z,99.99
2023-08-13T03:58:28.379Z,99.99
2023-08-13T03:59:28.386Z,99.99
2023-08-13T04:00:28.363Z,99.99
2023-08-13T04:01:28.443Z,99.99
2023-08-13T04:02:28.504Z,99.99
2023-08-13T04:03:28.737Z,99.99
2023-08-13T04:04:28.415Z,99.99
2023-08-13T04:05:28.314Z,99.99
2023-08-13T04:06:28.307Z,99.99
2023-08-13T04:07:28.275Z,99.99
2023-08-13T04:08:28.303Z,99.99
2023-08-13T04:09:28.315Z,99.99
2023-08-13T04:10:28.577Z,99.99
2023-08-13T04:11:28.250Z,99.99
2023-08-13T04:12:28.233Z,99.99
2023-08-13T04:13:28.230Z,99.99
2023-08-13T04:14:28.207Z,99.99
2023-08-13T04:15:28.242Z,99.99
2023-08-13T04:16:28.215Z,99.91
2023-08-13T04:17:28.500Z,99.81
2023-08-13T04:18:28.177Z,99.71
2023-08-13T04:19:28.156Z,99.61
2023-08-13T04:20:28.160Z,99.61
2023-08-13T04:21:28.164Z,99.61
2023-08-13T04:22:28.134Z,99.71
2023-08-13T04:23:28.107Z,99.71
2023-08-13T04:24:28.383Z,99.81
2023-08-13T04:25:28.077Z,99.81
2023-08-13T04:26:28.079Z,99.81
2023-08-13T04:27:28.111Z,99.91
2023-08-13T04:28:28.067Z,99.91
2023-08-13T04:29:28.053Z,99.99
2023-08-13T04:30:28.043Z,99.99
2023-08-13T04:31:28.329Z,99.91
2023-08-13T04:32:28.028Z,99.91
2023-08-13T04:33:28.051Z,99.91
2023-08-13T04:34:28.003Z,99.81
2023-08-13T04:35:28.016Z,99.71
2023-08-13T04:36:27.980Z,99.71
2023-08-13T04:37:27.965Z,99.51
2023-08-13T04:38:28.225Z,99.51
2023-08-13T04:39:27.970Z,99.41
2023-08-13T04:40:27.941Z,99.30
2023-08-13T04:41:27.902Z,99.21
2023-08-13T04:42:27.910Z,99.21
2023-08-13T04:43:27.894Z,99.21
2023-08-13T04:44:27.881Z,99.10
2023-08-13T04:45:28.222Z,99.10
2023-08-13T04:46:27.861Z,99.01
2023-08-13T04:47:27.923Z,99.01
2023-08-13T04:48:27.849Z,98.90
2023-08-13T04:49:28.417Z,98.80
2023-08-13T04:50:27.819Z,98.80
2023-08-13T04:51:28.407Z,98.70
2023-08-13T04:52:28.115Z,98.70
2023-08-13T04:53:27.776Z,98.70
2023-08-13T04:54:27.773Z,98.60
2023-08-13T04:55:27.765Z,98.55
2023-08-13T04:56:27.758Z,98.55
2023-08-13T04:57:27.977Z,98.45
2023-08-13T04:58:27.737Z,98.45
2023-08-13T04:59:27.996Z,98.45
2023-08-13T05:00:27.714Z,98.35
2023-08-13T05:01:27.716Z,98.45
2023-08-13T05:02:27.850Z,98.25
2023-08-13T05:03:27.708Z,98.25
2023-08-13T05:04:27.702Z,98.45
2023-08-13T05:05:27.688Z,98.25
2023-08-13T05:06:27.918Z,98.25
2023-08-13T05:07:27.620Z,98.25
2023-08-13T05:08:27.626Z,98.25
2023-08-13T05:09:27.645Z,97.94
2023-08-13T05:10:27.599Z,97.94
2023-08-13T05:11:27.605Z,97.85
2023-08-13T05:12:27.574Z,97.85
2023-08-13T05:13:27.858Z,97.69
2023-08-13T05:14:27.561Z,97.49
2023-08-13T05:15:27.637Z,97.49
2023-08-13T05:16:27.523Z,97.19
2023-08-13T05:17:27.539Z,97.09
2023-08-13T05:18:27.514Z,96.98
2023-08-13T05:19:28.656Z,96.98
2023-08-13T05:20:27.783Z,97.09
2023-08-13T05:21:27.511Z,96.98
2023-08-13T05:22:27.475Z,96.98
2023-08-13T05:23:27.483Z,96.98
2023-08-13T05:24:27.450Z,96.89
2023-08-13T05:25:27.443Z,96.78
2023-08-13T05:26:27.453Z,96.89
2023-08-13T05:27:27.752Z,96.74
2023-08-13T05:28:27.460Z,96.74
2023-08-13T05:29:27.389Z,96.54
2023-08-13T05:30:27.381Z,96.23
2023-08-13T05:31:27.403Z,96.13
2023-08-13T05:32:27.364Z,96.13
2023-08-13T05:33:27.375Z,96.03
2023-08-13T05:34:27.634Z,95.93
2023-08-13T05:35:27.334Z,96.03
2023-08-13T05:36:27.318Z,96.03
2023-08-13T05:37:27.417Z,96.13
2023-08-13T05:38:27.291Z,96.13
2023-08-13T05:39:27.347Z,95.73
2023-08-13T05:40:27.286Z,95.58
2023-08-13T05:41:27.531Z,94.87
2023-08-13T05:42:27.259Z,95.07
2023-08-13T05:43:27.242Z,94.98
2023-08-13T05:44:27.231Z,94.98
2023-08-13T05:45:27.274Z,94.78
2023-08-13T05:46:27.284Z,94.27
2023-08-13T05:47:27.258Z,93.96
2023-08-13T05:48:27.461Z,93.96
2023-08-13T05:49:27.208Z,94.17
2023-08-13T05:50:27.175Z,94.17
2023-08-13T05:51:27.194Z,94.02
2023-08-13T05:52:27.149Z,93.52
2023-08-13T05:53:27.161Z,93.52
2023-08-13T05:54:27.144Z,93.62
2023-08-13T05:55:27.432Z,93.41
2023-08-13T05:56:27.136Z,93.12
2023-08-13T05:57:27.143Z,92.97
2023-08-13T05:58:27.084Z,92.97
2023-08-13T05:59:27.073Z,92.57
2023-08-13T06:00:27.105Z,92.46
2023-08-13T06:01:27.102Z,92.46
2023-08-13T06:02:27.385Z,92.36
2023-08-13T06:03:27.784Z,92.62
2023-08-13T06:04:27.031Z,92.12
2023-08-13T06:05:27.024Z,91.82
2023-08-13T06:06:27.034Z,91.17
2023-08-13T06:07:26.986Z,89.57
2023-08-13T06:08:26.973Z,86.87
2023-08-13T06:09:27.299Z,86.26
2023-08-13T06:10:26.965Z,86.46
2023-08-13T06:11:26.935Z,84.67
2023-08-13T06:12:26.972Z,83.47
2023-08-13T06:13:26.956Z,82.38
2023-08-13T06:14:26.911Z,81.38
2023-08-13T06:15:26.932Z,81.68
2023-08-13T06:16:27.242Z,82.46
2023-08-13T06:17:26.975Z,83.37
2023-08-13T06:18:26.873Z,82.92
2023-08-13T06:19:26.882Z,82.28
2023-08-13T06:20:26.866Z,80.96
2023-08-13T06:21:26.891Z,77.64
2023-08-13T06:22:26.874Z,74.93
2023-08-13T06:23:27.127Z,72.36
2023-08-13T06:24:26.849Z,69.99
2023-08-13T06:25:26.792Z,71.83
2023-08-13T06:26:26.789Z,73.26
2023-08-13T06:27:26.808Z,74.70
2023-08-13T06:28:26.783Z,74.16
2023-08-13T06:29:26.758Z,73.80
2023-08-13T06:30:27.023Z,75.84
2023-08-13T06:31:41.386Z,76.81
2023-08-13T06:32:26.767Z,78.59
2023-08-13T06:33:26.813Z,79.43
2023-08-13T06:34:26.702Z,80.13
2023-08-13T06:35:26.704Z,80.54
2023-08-13T06:36:26.692Z,77.98
2023-08-13T06:37:26.983Z,76.34
2023-08-13T06:38:26.716Z,76.04
2023-08-13T06:39:26.711Z,76.64
2023-08-13T06:40:26.724Z,75.90
2023-08-13T06:41:26.663Z,74.03
2023-08-13T06:42:26.638Z,73.13
2023-08-13T06:43:26.677Z,73.56
2023-08-13T06:44:26.902Z,74.56
2023-08-13T06:45:26.613Z,73.79
2023-08-13T06:46:26.619Z,72.59
2023-08-13T06:47:26.610Z,72.33
2023-08-13T06:48:26.563Z,74.13
2023-08-13T06:49:26.571Z,73.06
2023-08-13T06:50:26.550Z,70.42
2023-08-13T06:51:26.581Z,70.59
2023-08-13T06:52:26.549Z,69.43
2023-08-13T06:53:26.519Z,67.96
2023-08-13T06:54:26.551Z,67.93
2023-08-13T06:55:26.498Z,67.80
2023-08-13T06:56:26.507Z,66.20
2023-08-13T06:57:26.843Z,64.91
2023-08-13T06:58:26.478Z,65.21
2023-08-13T06:59:26.475Z,65.88
2023-08-13T07:00:38.352Z,64.42
2023-08-13T07:01:26.461Z,64.06
2023-08-13T07:02:26.438Z,63.66
2023-08-13T07:03:26.798Z,64.98
2023-08-13T07:04:26.471Z,65.51
2023-08-13T07:05:26.439Z,66.64
2023-08-13T07:06:26.446Z,66.87
2023-08-13T07:07:26.427Z,67.03
2023-08-13T07:08:26.372Z,66.71
2023-08-13T07:09:26.692Z,65.54
2023-08-13T07:10:26.396Z,66.04
2023-08-13T07:11:26.348Z,66.83
2023-08-13T07:12:26.378Z,67.47
2023-08-13T07:13:26.333Z,67.96
2023-08-13T07:14:26.392Z,67.80
2023-08-13T07:15:26.429Z,67.30
2023-08-13T07:16:26.550Z,68.60
2023-08-13T07:17:26.323Z,69.02
2023-08-13T07:18:26.312Z,70.42
2023-08-13T07:19:26.295Z,71.96
2023-08-13T07:20:26.251Z,73.13
2023-08-13T07:21:26.584Z,75.60
2023-08-13T07:22:26.302Z,74.76
2023-08-13T07:23:26.253Z,75.10
2023-08-13T07:24:26.227Z,75.74
2023-08-13T07:25:26.221Z,76.10
2023-08-13T07:26:26.244Z,75.13
2023-08-13T07:27:26.231Z,73.79
2023-08-13T07:28:26.477Z,74.43
2023-08-13T07:29:26.207Z,75.40
2023-08-13T07:30:26.190Z,76.34
2023-08-13T07:31:26.311Z,76.43
2023-08-13T07:32:26.274Z,76.17
2023-08-13T07:33:26.176Z,74.49
2023-08-13T07:34:26.184Z,72.62
2023-08-13T07:35:26.432Z,72.39
2023-08-13T07:36:26.127Z,71.42
2023-08-13T07:37:27.768Z,73.02
2023-08-13T07:38:26.133Z,71.89
2023-08-13T07:39:26.115Z,70.06
2023-08-13T07:40:26.142Z,71.72
2023-08-13T07:41:26.086Z,71.79
2023-08-13T07:42:26.343Z,71.06
2023-08-13T07:43:26.079Z,69.62
2023-08-13T07:44:26.061Z,70.03
2023-08-13T07:45:26.171Z,70.36
2023-08-13T07:46:26.034Z,69.92
2023-08-13T07:47:26.015Z,70.26
2023-08-13T07:48:25.998Z,71.52
2023-08-13T07:49:26.273Z,73.22
2023-08-13T07:50:25.996Z,74.03
2023-08-13T07:51:26.017Z,73.79
2023-08-13T07:52:25.957Z,72.92
2023-08-13T07:53:26.024Z,72.35
2023-08-13T07:54:25.953Z,71.36
2023-08-13T07:55:25.978Z,70.39
2023-08-13T07:56:26.211Z,68.03
2023-08-13T07:57:26.015Z,67.20
2023-08-13T07:58:25.944Z,67.70
2023-08-13T07:59:25.930Z,67.13
2023-08-13T08:00:25.902Z,67.77
2023-08-13T08:01:25.945Z,67.07
2023-08-13T08:02:25.932Z,68.00
2023-08-13T08:03:26.384Z,68.90
2023-08-13T08:04:25.851Z,69.56
2023-08-13T08:05:25.852Z,70.59
2023-08-13T08:06:28.772Z,71.33
2023-08-13T08:07:25.876Z,71.92
2023-08-13T08:08:25.801Z,71.52
2023-08-13T08:09:25.935Z,71.59
2023-08-13T08:10:26.133Z,69.79
2023-08-13T08:11:25.792Z,70.79
2023-08-13T08:12:25.792Z,70.95
2023-08-13T08:13:25.790Z,70.09
2023-08-13T08:14:25.768Z,70.76
2023-08-13T08:15:25.856Z,70.39
2023-08-13T08:16:25.716Z,71.33
2023-08-13T08:17:26.050Z,71.89
2023-08-13T08:18:25.773Z,70.36
2023-08-13T08:19:25.734Z,70.19
2023-08-13T08:20:25.756Z,70.92
2023-08-13T08:21:25.753Z,71.42
2023-08-13T08:22:25.673Z,70.79
2023-08-13T08:23:25.726Z,71.33
2023-08-13T08:24:25.962Z,72.02
2023-08-13T08:25:25.743Z,71.06
2023-08-13T08:26:25.632Z,70.12
2023-08-13T08:27:25.687Z,69.16
2023-08-13T08:28:25.599Z,68.60
2023-08-13T08:29:25.731Z,68.46
2023-08-13T08:30:25.637Z,68.13
2023-08-13T08:31:25.957Z,67.90
2023-08-13T08:32:25.602Z,68.10
2023-08-13T08:33:25.654Z,66.41
2023-08-13T08:34:25.826Z,67.43
2023-08-13T08:35:25.588Z,66.74
2023-08-13T08:36:25.588Z,67.20
2023-08-13T08:37:25.556Z,66.67
2023-08-13T08:38:25.823Z,66.11
2023-08-13T08:39:25.630Z,67.77
2023-08-13T08:40:25.557Z,69.39
2023-08-13T08:41:25.480Z,68.19
2023-08-13T08:42:25.520Z,68.60
2023-08-13T08:43:25.468Z,68.56
2023-08-13T08:44:25.441Z,67.77
2023-08-13T08:45:25.676Z,67.43
2023-08-13T08:46:25.456Z,67.00
2023-08-13T08:47:25.477Z,66.97
2023-08-13T08:48:25.521Z,66.17
2023-08-13T08:49:25.420Z,66.80
2023-08-13T08:50:25.967Z,66.67
2023-08-13T08:51:25.783Z,66.08
2023-08-13T08:52:25.405Z,65.94
2023-08-13T08:53:25.387Z,65.72
2023-08-13T08:54:25.412Z,64.19
2023-08-13T08:55:25.383Z,63.30
2023-08-13T08:56:25.331Z,63.30
2023-08-13T08:57:25.515Z,61.91
2023-08-13T08:58:25.593Z,62.67
2023-08-13T08:59:25.412Z,62.77
2023-08-13T09:00:25.327Z,62.45
2023-08-13T09:01:25.324Z,61.22
2023-08-13T09:02:25.287Z,61.72
2023-08-13T09:03:25.491Z,61.10
2023-08-13T09:04:25.251Z,60.99
2023-08-13T09:05:25.581Z,61.19
2023-08-13T09:06:25.233Z,60.60
2023-08-13T09:07:25.274Z,60.99
2023-08-13T09:08:25.206Z,60.07
2023-08-13T09:09:25.260Z,59.94
2023-08-13T09:10:25.172Z,59.62
2023-08-13T09:11:25.238Z,59.62
2023-08-13T09:12:25.557Z,59.52
2023-08-13T09:13:25.253Z,59.80
2023-08-13T09:14:25.180Z,60.85
2023-08-13T09:15:25.265Z,63.53
2023-08-13T09:16:25.176Z,64.19
2023-08-13T09:17:25.183Z,63.20
2023-08-13T09:18:25.210Z,62.54
2023-08-13T09:19:25.466Z,62.37
2023-08-13T09:20:25.165Z,61.98
2023-08-13T09:21:25.172Z,61.48
2023-08-13T09:22:25.214Z,61.08
2023-08-13T09:23:25.093Z,61.71
2023-08-13T09:24:25.169Z,62.01
2023-08-13T09:25:25.116Z,62.60
2023-08-13T09:26:25.338Z,62.13
2023-08-13T09:27:25.092Z,62.73
2023-08-13T09:28:25.106Z,62.76
2023-08-13T09:29:25.056Z,64.69
2023-08-13T09:30:25.061Z,65.74
2023-08-13T09:31:24.986Z,65.41
2023-08-13T09:32:25.035Z,65.31
2023-08-13T09:33:25.413Z,65.18
2023-08-13T09:34:25.024Z,64.55
2023-08-13T09:35:24.985Z,64.65
2023-08-13T09:36:24.968Z,64.03
2023-08-13T09:37:25.029Z,63.17
2023-08-13T09:38:24.967Z,62.54
2023-08-13T09:39:25.037Z,60.75
2023-08-13T09:40:25.253Z,60.33
2023-08-13T09:41:24.958Z,59.63
2023-08-13T09:42:25.012Z,59.83
2023-08-13T09:43:24.944Z,59.70
2023-08-13T09:44:24.977Z,60.70
2023-08-13T09:45:25.012Z,60.99
2023-08-13T09:46:24.884Z,60.00
2023-08-13T09:47:25.128Z,60.30
2023-08-13T09:48:24.880Z,59.53
2023-08-13T09:49:24.840Z,60.36
2023-08-13T09:50:24.837Z,60.85
2023-08-13T09:51:37.020Z,60.75
2023-08-13T09:52:24.819Z,61.12
2023-08-13T09:53:24.743Z,60.89
2023-08-13T09:54:25.067Z,61.16
2023-08-13T09:55:24.796Z,57.69
2023-08-13T09:56:24.753Z,57.67
2023-08-13T09:57:24.792Z,58.64
2023-08-13T09:58:24.787Z,60.39
2023-08-13T09:59:24.730Z,62.40
2023-08-13T10:00:24.851Z,61.38
2023-08-13T10:01:25.149Z,60.31
2023-08-13T10:02:24.723Z,60.39
2023-08-13T10:03:24.842Z,60.66
2023-08-13T10:04:24.666Z,58.97
2023-08-13T10:05:24.737Z,59.59
2023-08-13T10:06:24.700Z,59.56
2023-08-13T10:07:24.695Z,59.56
2023-08-13T10:08:24.885Z,59.76
2023-08-13T10:09:24.752Z,59.36
2023-08-13T10:10:24.673Z,60.13
2023-08-13T10:11:24.693Z,60.36
2023-08-13T10:12:24.624Z,60.16
2023-08-13T10:13:24.643Z,60.58
2023-08-13T10:14:24.541Z,60.28
2023-08-13T10:15:25.102Z,60.49
2023-08-13T10:16:24.589Z,60.93
2023-08-13T10:17:24.551Z,59.41
2023-08-13T10:18:24.544Z,59.31
2023-08-13T10:19:24.588Z,59.08
2023-08-13T10:20:24.554Z,58.29
2023-08-13T10:21:24.611Z,58.29
2023-08-13T10:22:24.874Z,58.86
2023-08-13T10:23:24.443Z,58.86
2023-08-13T10:24:25.383Z,58.16
2023-08-13T10:25:24.452Z,59.08
2023-08-13T10:26:24.489Z,57.97
2023-08-13T10:27:24.554Z,58.09
2023-08-13T10:28:24.543Z,56.63
2023-08-13T10:29:24.793Z,57.62
2023-08-13T10:30:24.499Z,59.56
2023-08-13T10:31:24.415Z,60.09
2023-08-13T10:32:24.463Z,58.97
2023-08-13T10:33:24.438Z,58.30
2023-08-13T10:34:24.459Z,58.50
2023-08-13T10:35:24.362Z,58.34
2023-08-13T10:36:24.660Z,57.13
2023-08-13T10:37:24.357Z,57.53
2023-08-13T10:38:24.304Z,56.11
2023-08-13T10:39:24.407Z,56.18
2023-08-13T10:40:24.276Z,56.28
2023-08-13T10:41:24.359Z,56.74
2023-08-13T10:42:24.380Z,55.76
2023-08-13T10:43:24.541Z,56.13
2023-08-13T10:44:24.283Z,54.81
2023-08-13T10:45:24.302Z,54.77
2023-08-13T10:46:24.329Z,54.84
2023-08-13T10:47:24.236Z,56.65
2023-08-13T10:48:24.241Z,56.55
2023-08-13T10:49:24.579Z,55.96
2023-08-13T10:50:24.189Z,56.90
2023-08-13T10:51:24.218Z,57.32
2023-08-13T10:52:24.157Z,57.72
2023-08-13T10:53:24.167Z,57.42
2023-08-13T10:54:24.212Z,56.40
2023-08-13T10:55:24.430Z,56.87
2023-08-13T10:56:24.147Z,54.94
2023-08-13T10:57:24.939Z,57.70
2023-08-13T10:58:24.226Z,59.45
2023-08-13T10:59:24.200Z,59.65
2023-08-13T11:00:24.083Z,59.65
2023-08-13T11:01:24.123Z,59.92
2023-08-13T11:02:24.501Z,60.02
2023-08-13T11:03:24.261Z,59.39
2023-08-13T11:04:24.088Z,57.38
2023-08-13T11:05:24.082Z,56.88
2023-08-13T11:06:24.100Z,57.35
2023-08-13T11:07:24.369Z,57.45
2023-08-13T11:08:37.403Z,57.45
2023-08-13T11:09:24.113Z,57.42
2023-08-13T11:10:24.016Z,56.34
2023-08-13T11:11:23.999Z,56.70
2023-08-13T11:12:24.048Z,56.30
2023-08-13T11:13:23.977Z,55.78
2023-08-13T11:14:24.231Z,56.08
2023-08-13T11:15:24.018Z,54.99
2023-08-13T11:16:24.008Z,55.34
2023-08-13T11:17:24.017Z,56.34
2023-08-13T11:18:23.957Z,56.93
2023-08-13T11:19:23.899Z,57.10
2023-08-13T11:20:23.902Z,56.70
2023-08-13T11:21:24.311Z,55.19
2023-08-13T11:22:23.861Z,55.58
2023-08-13T11:23:23.866Z,56.28
2023-08-13T11:24:23.841Z,56.77
2023-08-13T11:25:23.836Z,57.10
2023-08-13T11:26:23.806Z,56.66
2023-08-13T11:27:23.857Z,58.33
2023-08-13T11:28:24.113Z,58.20
2023-08-13T11:29:23.857Z,56.29
2023-08-13T11:30:23.869Z,56.83
2023-08-13T11:31:23.852Z,54.94
2023-08-13T11:32:23.850Z,55.29
2023-08-13T11:33:23.953Z,53.73
2023-08-13T11:34:23.787Z,54.25
2023-08-13T11:35:24.058Z,54.05
2023-08-13T11:36:23.727Z,54.62
2023-08-13T11:37:23.766Z,54.02
2023-08-13T11:38:23.704Z,55.04
2023-08-13T11:39:23.757Z,52.84
2023-08-13T11:40:23.733Z,53.50
2023-08-13T11:41:23.696Z,54.38
2023-08-13T11:42:23.996Z,55.40
2023-08-13T11:43:23.930Z,55.49
2023-08-13T11:44:23.621Z,55.19
2023-08-13T11:45:23.784Z,56.38
2023-08-13T11:46:23.713Z,54.47
2023-08-13T11:47:23.626Z,54.75
2023-08-13T11:48:23.620Z,54.05
2023-08-13T11:49:23.882Z,55.04
2023-08-13T11:50:23.581Z,56.09
2023-08-13T11:51:23.680Z,55.42
2023-08-13T11:52:23.641Z,56.02
2023-08-13T11:53:23.542Z,56.71
2023-08-13T11:54:23.568Z,55.99
2023-08-13T11:55:23.571Z,55.87
2023-08-13T11:56:23.890Z,56.06
2023-08-13T11:57:23.530Z,55.44
2023-08-13T11:58:23.540Z,55.41
2023-08-13T11:59:23.554Z,54.79
2023-08-13T12:00:23.465Z,54.00
2023-08-13T12:01:23.454Z,55.32
2023-08-13T12:02:23.493Z,56.11
2023-08-13T12:03:23.932Z,56.51
2023-08-13T12:04:23.430Z,56.21
2023-08-13T12:05:23.416Z,56.60
2023-08-13T12:06:23.436Z,54.52
2023-08-13T12:07:23.388Z,56.40
2023-08-13T12:08:23.450Z,56.80
2023-08-13T12:09:23.468Z,56.21
2023-08-13T12:10:23.689Z,55.91
2023-08-13T12:11:23.342Z,56.01
2023-08-13T12:12:23.339Z,56.63
2023-08-13T12:13:23.327Z,56.93
2023-08-13T12:14:23.423Z,57.08
2023-08-13T12:15:23.418Z,59.32
2023-08-13T12:16:24.114Z,60.12
2023-08-13T12:17:23.617Z,59.00
2023-08-13T12:18:23.298Z,57.01
2023-08-13T12:19:23.315Z,57.81
2023-08-13T12:20:23.413Z,56.68
2023-08-13T12:21:23.386Z,57.31
2023-08-13T12:22:23.302Z,56.91
2023-08-13T12:23:23.372Z,57.41
2023-08-13T12:24:23.642Z,57.31
2023-08-13T12:25:23.255Z,57.60
2023-08-13T12:26:23.282Z,57.90
2023-08-13T12:27:23.309Z,58.20
2023-08-13T12:28:23.215Z,57.11
2023-08-13T12:29:23.205Z,57.90
2023-08-13T12:30:23.285Z,58.43
2023-08-13T12:31:23.612Z,59.65
2023-08-13T12:32:23.208Z,59.42
2023-08-13T12:33:23.240Z,59.42
2023-08-13T12:34:23.133Z,59.03
2023-08-13T12:35:23.137Z,58.13
2023-08-13T12:36:23.148Z,58.65
2023-08-13T12:37:23.059Z,59.58
2023-08-13T12:38:23.452Z,60.11
2023-08-13T12:39:23.138Z,61.20
2023-08-13T12:40:23.210Z,59.65
2023-08-13T12:41:34.599Z,59.42
2023-08-13T12:42:23.040Z,58.73
2023-08-13T12:43:23.039Z,58.43
2023-08-13T12:44:23.125Z,58.53
2023-08-13T12:45:23.468Z,57.58
2023-08-13T12:46:23.145Z,56.88
2023-08-13T12:47:23.003Z,54.85
2023-08-13T12:48:23.032Z,54.82
2023-08-13T12:49:22.992Z,55.21
2023-08-13T12:50:22.953Z,54.49
2023-08-13T12:51:23.039Z,54.07
2023-08-13T12:52:23.293Z,54.20
2023-08-13T12:53:22.959Z,54.39
2023-08-13T12:54:23.106Z,54.35
2023-08-13T12:55:22.937Z,53.78